Terminal Aerodrome Forecast
Issued by NWS Charleston, WV

Current Version | Previous Version | Graphics & Text | Print | Product List | Glossary On
Versions: 1 2 3 4 5 6 7 8 9 10 11 12 13 14 15 16 17 18 19 20 21 22 23 24 25 26
473
FTUS41 KRLX 261311 AAA
TAFEKN
TAF AMD
KEKN 261311Z 2613/2712 25010G25KT 5SM -SHRA VCTS SCT040CB OVC050
      TEMPO 2613/2615 31015G30KT 2SM SHRA BR BKN030
     FM261500 25013G22KT 5SM SHRA VCTS BKN045CB
     FM262200 27010G17KT 4SM -SHRA VCTS BKN030CB
     FM270100 25006KT 4SM -SHRA VCTS BKN025CB
     FM270500 VRB02KT 2SM -SHRA BKN008=

USA.gov is the U.S. government's official web portal to all federal, state and local government web resources and services.